Aviation Digital Data Service (ADDS)

Output produced by METARs form (0229 UTC 20 September 2020)
found at http://www.aviationweather.gov/metar/data/
 
METAR text: TGPY 200200Z 08010KT 9999 FEW018 28/24 Q1011 NOSIG
Conditions at: TGPY (POINT SALINES , GD) observed 0200 UTC 20 September 2020
Temperature: 28.0°C (82°F)
Dewpoint: 24.0°C (75°F) [RH = 79%]
Pressure (altimeter): 29.85 inches Hg (1011.0 mb)
Winds: from the E (80 degrees) at 12 MPH (10 knots; 5.1 m/s)
Visibility: 6 or more miles (10+ km)
Ceiling: at least 12,000 feet AGL
Clouds: few clouds at 1800 feet AGL
Weather: no significant weather observed at this time

METAR text: TGPY 200100Z 00000KT 9999 FEW018 27/23 Q1011 NOSIG
Conditions at: TGPY (POINT SALINES , GD) observed 0100 UTC 20 September 2020
Temperature: 27.0°C (81°F)
Dewpoint: 23.0°C (73°F) [RH = 79%]
Pressure (altimeter): 29.85 inches Hg (1011.0 mb)
Winds: calm
Visibility: 6 or more miles (10+ km)
Ceiling: at least 12,000 feet AGL
Clouds: few clouds at 1800 feet AGL
Weather: no significant weather observed at this time

METAR text: TGPY 200000Z 00000KT 9999 FEW018 SCT036 27/23 Q1011 NOSIG
Conditions at: TGPY (POINT SALINES , GD) observed 0000 UTC 20 September 2020
Temperature: 27.0°C (81°F)
Dewpoint: 23.0°C (73°F) [RH = 79%]
Pressure (altimeter): 29.85 inches Hg (1011.0 mb)
Winds: calm
Visibility: 6 or more miles (10+ km)
Ceiling: at least 12,000 feet AGL
Clouds: few clouds at 1800 feet AGL
scattered clouds at 3600 feet AGL
Weather: no significant weather observed at this time

METAR text: TGPY 192300Z 00000KT 9999 FEW018 SCT036 28/24 Q1011 NOSIG
Conditions at: TGPY (POINT SALINES , GD) observed 2300 UTC 19 September 2020
Temperature: 28.0°C (82°F)
Dewpoint: 24.0°C (75°F) [RH = 79%]
Pressure (altimeter): 29.85 inches Hg (1011.0 mb)
Winds: calm
Visibility: 6 or more miles (10+ km)
Ceiling: at least 12,000 feet AGL
Clouds: few clouds at 1800 feet AGL
scattered clouds at 3600 feet AGL
Weather: no significant weather observed at this time

METAR text: TGPY 192200Z 00000KT 9999 FEW014CB SCT036 BKN080 29/24 Q1010 NOSIG CB-SSE/S
Conditions at: TGPY (POINT SALINES , GD) observed 2200 UTC 19 September 2020
Temperature: 29.0°C (84°F)
Dewpoint: 24.0°C (75°F) [RH = 74%]
Pressure (altimeter): 29.82 inches Hg (1010.0 mb)
Winds: calm
Visibility: 6 or more miles (10+ km)
Ceiling: 8000 feet AGL
Clouds: few clouds at 1400 feet AGL
scattered clouds at 3600 feet AGL
broken clouds at 8000 feet AGL
Weather: no significant weather observed at this time

METAR text: TGPY 192100Z 10004KT 9999 VCSH FEW015CB BKN035 29/24 Q1009 NOSIG CB-SSE/ ADJ-SHRA-WSW
Conditions at: TGPY (POINT SALINES , GD) observed 2100 UTC 19 September 2020
Temperature: 29.0°C (84°F)
Dewpoint: 24.0°C (75°F) [RH = 74%]
Pressure (altimeter): 29.79 inches Hg (1009.0 mb)
Winds: from the E (100 degrees) at 5 MPH (4 knots; 2.1 m/s)
Visibility: 6 or more miles (10+ km)
Ceiling: 3500 feet AGL
Clouds: few clouds at 1500 feet AGL
broken clouds at 3500 feet AGL
Weather: VCSH -SHRA  (showers in vicinity, light rain showers)

METAR text: TGPY 192000Z 17010KT 9999 VCSH FEW015CB BKN035 30/24 Q1009 NOSIG CB-N/E/SSE-SSW/ ADJ-SHRA-WSW
Conditions at: TGPY (POINT SALINES , GD) observed 2000 UTC 19 September 2020
Temperature: 30.0°C (86°F)
Dewpoint: 24.0°C (75°F) [RH = 70%]
Pressure (altimeter): 29.79 inches Hg (1009.0 mb)
Winds: from the S (170 degrees) at 12 MPH (10 knots; 5.1 m/s)
Visibility: 6 or more miles (10+ km)
Ceiling: 3500 feet AGL
Clouds: few clouds at 1500 feet AGL
broken clouds at 3500 feet AGL
Weather: VCSH -SHRA  (showers in vicinity, light rain showers)

METAR text: TGPY 191900Z 18010KT 9999 VCSH FEW015CB BKN035 30/25 Q1009 NOSIG CB-E-ESE/SSE/SSW ADJ-SHRA-SSW
Conditions at: TGPY (POINT SALINES , GD) observed 1900 UTC 19 September 2020
Temperature: 30.0°C (86°F)
Dewpoint: 25.0°C (77°F) [RH = 75%]
Pressure (altimeter): 29.79 inches Hg (1009.0 mb)
Winds: from the S (180 degrees) at 12 MPH (10 knots; 5.1 m/s)
Visibility: 6 or more miles (10+ km)
Ceiling: 3500 feet AGL
Clouds: few clouds at 1500 feet AGL
broken clouds at 3500 feet AGL
Weather: VCSH -SHRA  (showers in vicinity, light rain showers)

METAR text: TGPY 191800Z 17016KT 9999 SCT015CB FEW017TCU BKN035 30/25 Q1010 NOSIG CB-N/E/SSE/S EXT OHD/ TCU-SSE
Conditions at: TGPY (POINT SALINES , GD) observed 1800 UTC 19 September 2020
Temperature: 30.0°C (86°F)
Dewpoint: 25.0°C (77°F) [RH = 75%]
Pressure (altimeter): 29.82 inches Hg (1010.0 mb)
Winds: from the S (170 degrees) at 18 MPH (16 knots; 8.2 m/s)
Visibility: 6 or more miles (10+ km)
Ceiling: 3500 feet AGL
Clouds: scattered clouds at 1500 feet AGL
few clouds at 1700 feet AGL
broken clouds at 3500 feet AGL
Weather: no significant weather observed at this time

METAR text: TGPY 191700Z 17018KT 9999 VCTS VCSH SCT015CB SCT017 30/26 Q1011 NOSIG CB-N/SE/S EXT OHD/W
Conditions at: TGPY (POINT SALINES , GD) observed 1700 UTC 19 September 2020
Temperature: 30.0°C (86°F)
Dewpoint: 26.0°C (79°F) [RH = 79%]
Pressure (altimeter): 29.85 inches Hg (1011.0 mb)
Winds: from the S (170 degrees) at 21 MPH (18 knots; 9.3 m/s)
Visibility: 6 or more miles (10+ km)
Ceiling: at least 12,000 feet AGL
Clouds: scattered clouds at 1500 feet AGL
scattered clouds at 1700 feet AGL
Weather: VCTS VCSH  (thunderstorm in vicinity, showers in vicinity)

METAR text: TGPY 191600Z 18015KT 9999 VCTS VCSH BKN015CB 29/25 Q1012 TEMPO SHRA CB-N/NNE/S EXT OHD/NNW/ ADJ SHRA-NNE
Conditions at: TGPY (POINT SALINES , GD) observed 1600 UTC 19 September 2020
Temperature: 29.0°C (84°F)
Dewpoint: 25.0°C (77°F) [RH = 79%]
Pressure (altimeter): 29.88 inches Hg (1012.0 mb)
Winds: from the S (180 degrees) at 17 MPH (15 knots; 7.7 m/s)
Visibility: 6 or more miles (10+ km)
Ceiling: 1500 feet AGL
Clouds: broken clouds at 1500 feet AGL
Weather: VCTS VCSH  (thunderstorm in vicinity, showers in vicinity)

METAR text: TGPY 191500Z 08020KT 9999 VCTS VCSH SCT015CB SCT016 30/26 Q1013 TEMPO TSRA/ CB-ALQUADS/ ADJ SHRA-NNE/S/SW
Conditions at: TGPY (POINT SALINES , GD) observed 1500 UTC 19 September 2020
Temperature: 30.0°C (86°F)
Dewpoint: 26.0°C (79°F) [RH = 79%]
Pressure (altimeter): 29.91 inches Hg (1013.0 mb)
Winds: from the E (80 degrees) at 23 MPH (20 knots; 10.3 m/s)
Visibility: 6 or more miles (10+ km)
Ceiling: at least 12,000 feet AGL
Clouds: scattered clouds at 1500 feet AGL
scattered clouds at 1600 feet AGL
Weather: VCTS VCSH  (thunderstorm in vicinity, showers in vicinity)

METAR text: TGPY 191400Z 08008KT 9999 SCT015CB FEW016TCU 30/26 Q1012 TEMPO CB-NE/E/S EXT OHD/ ADJ SHRA-S/E/ TCU-SW
Conditions at: TGPY (POINT SALINES , GD) observed 1400 UTC 19 September 2020
Temperature: 30.0°C (86°F)
Dewpoint: 26.0°C (79°F) [RH = 79%]
Pressure (altimeter): 29.88 inches Hg (1012.0 mb)
Winds: from the E (80 degrees) at 9 MPH (8 knots; 4.1 m/s)
Visibility: 6 or more miles (10+ km)
Ceiling: at least 12,000 feet AGL
Clouds: scattered clouds at 1500 feet AGL
few clouds at 1600 feet AGL
Weather: no significant weather observed at this time

METAR text: TGPY 191300Z 08012KT 9999 SCT015CB SCT017TCU 30/26 Q1013 TEMPO CB-ENE-SSW EXT OHD/ ADJ SHRA-S/ TCU-E
Conditions at: TGPY (POINT SALINES , GD) observed 1300 UTC 19 September 2020
Temperature: 30.0°C (86°F)
Dewpoint: 26.0°C (79°F) [RH = 79%]
Pressure (altimeter): 29.91 inches Hg (1013.0 mb)
Winds: from the E (80 degrees) at 14 MPH (12 knots; 6.2 m/s)
Visibility: 6 or more miles (10+ km)
Ceiling: at least 12,000 feet AGL
Clouds: scattered clouds at 1500 feet AGL
scattered clouds at 1700 feet AGL
Weather: no significant weather observed at this time

METAR text: TGPY 191200Z 08009KT 9999 SCT015CB SCT017 31/25 Q1012 NOSIG CB-E-W/ADJ SHRA-S
Conditions at: TGPY (POINT SALINES , GD) observed 1200 UTC 19 September 2020
Temperature: 31.0°C (88°F)
Dewpoint: 25.0°C (77°F) [RH = 71%]
Pressure (altimeter): 29.88 inches Hg (1012.0 mb)
Winds: from the E (80 degrees) at 10 MPH (9 knots; 4.6 m/s)
Visibility: 6 or more miles (10+ km)
Ceiling: at least 12,000 feet AGL
Clouds: scattered clouds at 1500 feet AGL
scattered clouds at 1700 feet AGL
Weather: SHRA  (rain showers)

METAR text: TGPY 191100Z 00000KT 9999 FEW015CB FEW017TCU 28/25 Q1011 NOSIG CB-SSE/S/SW/ ADJ SHRA-SW/ TCU-S
Conditions at: TGPY (POINT SALINES , GD) observed 1100 UTC 19 September 2020
Temperature: 28.0°C (82°F)
Dewpoint: 25.0°C (77°F) [RH = 84%]
Pressure (altimeter): 29.85 inches Hg (1011.0 mb)
Winds: calm
Visibility: 6 or more miles (10+ km)
Ceiling: at least 12,000 feet AGL
Clouds: few clouds at 1500 feet AGL
few clouds at 1700 feet AGL
Weather: SHRA  (rain showers)

METAR text: TGPY 191000Z VRB02KT 9999 FEW014CB 27/24 Q1010 NOSIG CB-E/SE/S ADJ SHRA-SSW/W
Conditions at: TGPY (POINT SALINES , GD) observed 1000 UTC 19 September 2020
Temperature: 27.0°C (81°F)
Dewpoint: 24.0°C (75°F) [RH = 84%]
Pressure (altimeter): 29.82 inches Hg (1010.0 mb)
Winds: variable direction winds at 2 MPH (2 knots; 1.0 m/s)
Visibility: 6 or more miles (10+ km)
Ceiling: at least 12,000 feet AGL
Clouds: few clouds at 1400 feet AGL
Weather: SHRA  (rain showers)

METAR text: TGPY 190900Z COR 00000KT 9999 VCTS FEW014CB 27/25 Q1010 NOSIG CB-SSE/S/SSW/W LGT SEEN-SSE/S/SSW ADJ SHRA-ALQDS
Conditions at: TGPY (POINT SALINES , GD) observed 0900 UTC 19 September 2020
Temperature: 27.0°C (81°F)
Dewpoint: 25.0°C (77°F) [RH = 89%]
Pressure (altimeter): 29.82 inches Hg (1010.0 mb)
Winds: calm
Visibility: 6 or more miles (10+ km)
Ceiling: at least 12,000 feet AGL
Clouds: few clouds at 1400 feet AGL
Weather: VCTS SHRA  (thunderstorm in vicinity, rain showers)

METAR text: TGPY 190800Z VRB02KT 9999 VCTS FEW014CB 27/24 Q1010 NOSIG CB-NE/E/SSW LGT SEEN-E/S/SSW ADJ SHRA-NE/SSE/SSW
Conditions at: TGPY (POINT SALINES , GD) observed 0800 UTC 19 September 2020
Temperature: 27.0°C (81°F)
Dewpoint: 24.0°C (75°F) [RH = 84%]
Pressure (altimeter): 29.82 inches Hg (1010.0 mb)
Winds: variable direction winds at 2 MPH (2 knots; 1.0 m/s)
Visibility: 6 or more miles (10+ km)
Ceiling: at least 12,000 feet AGL
Clouds: few clouds at 1400 feet AGL
Weather: VCTS SHRA  (thunderstorm in vicinity, rain showers)

METAR text: TGPY 190700Z 00000KT 9999 VCTS FEW014CB SCT019 27/25 Q1010 NOSIG CB-E/SSW LGT SEEN-E/SSW ADJ SHRA-NE/SSE/SSW
Conditions at: TGPY (POINT SALINES , GD) observed 0700 UTC 19 September 2020
Temperature: 27.0°C (81°F)
Dewpoint: 25.0°C (77°F) [RH = 89%]
Pressure (altimeter): 29.82 inches Hg (1010.0 mb)
Winds: calm
Visibility: 6 or more miles (10+ km)
Ceiling: at least 12,000 feet AGL
Clouds: few clouds at 1400 feet AGL
scattered clouds at 1900 feet AGL
Weather: VCTS SHRA  (thunderstorm in vicinity, rain showers)

METAR text: TGPY 190600Z 00000KT 9999 VCTS FEW014CB 27/25 Q1010 NOSIG CB-ESE LGT SEEN-ESE ADJ SHRA-NE/SSE/S
Conditions at: TGPY (POINT SALINES , GD) observed 0600 UTC 19 September 2020
Temperature: 27.0°C (81°F)
Dewpoint: 25.0°C (77°F) [RH = 89%]
Pressure (altimeter): 29.82 inches Hg (1010.0 mb)
Winds: calm
Visibility: 6 or more miles (10+ km)
Ceiling: at least 12,000 feet AGL
Clouds: few clouds at 1400 feet AGL
Weather: VCTS SHRA  (thunderstorm in vicinity, rain showers)

METAR text: TGPY 190500Z VRB02KT 9999 FEW014CB 28/25 Q1010 NOSIG CB-SSE
Conditions at: TGPY (POINT SALINES , GD) observed 0500 UTC 19 September 2020
Temperature: 28.0°C (82°F)
Dewpoint: 25.0°C (77°F) [RH = 84%]
Pressure (altimeter): 29.82 inches Hg (1010.0 mb)
Winds: variable direction winds at 2 MPH (2 knots; 1.0 m/s)
Visibility: 6 or more miles (10+ km)
Ceiling: at least 12,000 feet AGL
Clouds: few clouds at 1400 feet AGL
Weather: no significant weather observed at this time

METAR text: TGPY 190400Z COR 08005KT 9999 FEW021 27/25 Q1010 NOSIG
Conditions at: TGPY (POINT SALINES , GD) observed 0400 UTC 19 September 2020
Temperature: 27.0°C (81°F)
Dewpoint: 25.0°C (77°F) [RH = 89%]
Pressure (altimeter): 29.82 inches Hg (1010.0 mb)
Winds: from the E (80 degrees) at 6 MPH (5 knots; 2.6 m/s)
Visibility: 6 or more miles (10+ km)
Ceiling: at least 12,000 feet AGL
Clouds: few clouds at 2100 feet AGL
Weather: no significant weather observed at this time

METAR text: TGPY 190300Z 00000KT 9999 FEW022 27/24 Q1011 NOSIG
Conditions at: TGPY (POINT SALINES , GD) observed 0300 UTC 19 September 2020
Temperature: 27.0°C (81°F)
Dewpoint: 24.0°C (75°F) [RH = 84%]
Pressure (altimeter): 29.85 inches Hg (1011.0 mb)
Winds: calm
Visibility: 6 or more miles (10+ km)
Ceiling: at least 12,000 feet AGL
Clouds: few clouds at 2200 feet AGL
Weather: no significant weather observed at this time

METAR text: TGPY 190200Z 00000KT 9999 FEW022 27/24 Q1011 NOSIG
Conditions at: TGPY (POINT SALINES , GD) observed 0200 UTC 19 September 2020
Temperature: 27.0°C (81°F)
Dewpoint: 24.0°C (75°F) [RH = 84%]
Pressure (altimeter): 29.85 inches Hg (1011.0 mb)
Winds: calm
Visibility: 6 or more miles (10+ km)
Ceiling: at least 12,000 feet AGL
Clouds: few clouds at 2200 feet AGL
Weather: no significant weather observed at this time

METAR text: TGPY 190100Z 00000KT 9999 FEW022 28/24 Q1010 NOSIG
Conditions at: TGPY (POINT SALINES , GD) observed 0100 UTC 19 September 2020
Temperature: 28.0°C (82°F)
Dewpoint: 24.0°C (75°F) [RH = 79%]
Pressure (altimeter): 29.82 inches Hg (1010.0 mb)
Winds: calm
Visibility: 6 or more miles (10+ km)
Ceiling: at least 12,000 feet AGL
Clouds: few clouds at 2200 feet AGL
Weather: no significant weather observed at this time

METAR text: TGPY 190000Z 00000KT 9999 FEW022 28/24 Q1010 NOSIG
Conditions at: TGPY (POINT SALINES , GD) observed 0000 UTC 19 September 2020
Temperature: 28.0°C (82°F)
Dewpoint: 24.0°C (75°F) [RH = 79%]
Pressure (altimeter): 29.82 inches Hg (1010.0 mb)
Winds: calm
Visibility: 6 or more miles (10+ km)
Ceiling: at least 12,000 feet AGL
Clouds: few clouds at 2200 feet AGL
Weather: no significant weather observed at this time

METAR text: TGPY 182300Z 00000KT 9999 FEW022 29/24 Q1010 NOSIG
Conditions at: TGPY (POINT SALINES , GD) observed 2300 UTC 18 September 2020
Temperature: 29.0°C (84°F)
Dewpoint: 24.0°C (75°F) [RH = 74%]
Pressure (altimeter): 29.82 inches Hg (1010.0 mb)
Winds: calm
Visibility: 6 or more miles (10+ km)
Ceiling: at least 12,000 feet AGL
Clouds: few clouds at 2200 feet AGL
Weather: no significant weather observed at this time

METAR text: TGPY 182200Z 00000KT 9999 FEW///CB 30/25 Q1009 NOSIG
Conditions at: TGPY (POINT SALINES , GD) observed 2200 UTC 18 September 2020
Temperature: 30.0°C (86°F)
Dewpoint: 25.0°C (77°F) [RH = 75%]
Pressure (altimeter): 29.79 inches Hg (1009.0 mb)
Winds: calm
Visibility: 6 or more miles (10+ km)
Ceiling: unknown
Clouds: missing
Weather: no significant weather observed at this time

METAR text: TGPY 182100Z 21006KT 9999 FEW022 32/25 Q1009 NOSIG
Conditions at: TGPY (POINT SALINES , GD) observed 2100 UTC 18 September 2020
Temperature: 32.0°C (90°F)
Dewpoint: 25.0°C (77°F) [RH = 67%]
Pressure (altimeter): 29.79 inches Hg (1009.0 mb)
Winds: from the SSW (210 degrees) at 7 MPH (6 knots; 3.1 m/s)
Visibility: 6 or more miles (10+ km)
Ceiling: at least 12,000 feet AGL
Clouds: few clouds at 2200 feet AGL
Weather: no significant weather observed at this time

METAR text: TGPY 182000Z 20009KT 9999 FEW///CB 32/25 Q1009 NOSIG CB-E
Conditions at: TGPY (POINT SALINES , GD) observed 2000 UTC 18 September 2020
Temperature: 32.0°C (90°F)
Dewpoint: 25.0°C (77°F) [RH = 67%]
Pressure (altimeter): 29.79 inches Hg (1009.0 mb)
Winds: from the SSW (200 degrees) at 10 MPH (9 knots; 4.6 m/s)
Visibility: 6 or more miles (10+ km)
Ceiling: unknown
Clouds: missing
Weather: no significant weather observed at this time

METAR text: TGPY 181900Z 21010KT 9999 FEW022 32/25 Q1009 NOSIG
Conditions at: TGPY (POINT SALINES , GD) observed 1900 UTC 18 September 2020
Temperature: 32.0°C (90°F)
Dewpoint: 25.0°C (77°F) [RH = 67%]
Pressure (altimeter): 29.79 inches Hg (1009.0 mb)
Winds: from the SSW (210 degrees) at 12 MPH (10 knots; 5.1 m/s)
Visibility: 6 or more miles (10+ km)
Ceiling: at least 12,000 feet AGL
Clouds: few clouds at 2200 feet AGL
Weather: no significant weather observed at this time

METAR text: TGPY 181800Z 20010KT 9999 FEW022 32/25 Q1010
Conditions at: TGPY (POINT SALINES , GD) observed 1800 UTC 18 September 2020
Temperature: 32.0°C (90°F)
Dewpoint: 25.0°C (77°F) [RH = 67%]
Pressure (altimeter): 29.82 inches Hg (1010.0 mb)
Winds: from the SSW (200 degrees) at 12 MPH (10 knots; 5.1 m/s)
Visibility: 6 or more miles (10+ km)
Ceiling: at least 12,000 feet AGL
Clouds: few clouds at 2200 feet AGL
Weather: no significant weather observed at this time

METAR text: TGPY 181700Z 18012KT 9999 FEW022 33/26 Q1010
Conditions at: TGPY (POINT SALINES , GD) observed 1700 UTC 18 September 2020
Temperature: 33.0°C (91°F)
Dewpoint: 26.0°C (79°F) [RH = 67%]
Pressure (altimeter): 29.82 inches Hg (1010.0 mb)
Winds: from the S (180 degrees) at 14 MPH (12 knots; 6.2 m/s)
Visibility: 6 or more miles (10+ km)
Ceiling: at least 12,000 feet AGL
Clouds: few clouds at 2200 feet AGL
Weather: no significant weather observed at this time

METAR text: TGPY 181600Z 20008KT 9999 FEW022 FEW///CB 33/26 Q1011 NOSIG CB-N
Conditions at: TGPY (POINT SALINES , GD) observed 1600 UTC 18 September 2020
Temperature: 33.0°C (91°F)
Dewpoint: 26.0°C (79°F) [RH = 67%]
Pressure (altimeter): 29.85 inches Hg (1011.0 mb)
Winds: from the SSW (200 degrees) at 9 MPH (8 knots; 4.1 m/s)
Visibility: 6 or more miles (10+ km)
Ceiling: at least 12,000 feet AGL
Clouds: few clouds at 2200 feet AGL
Weather: no significant weather observed at this time

METAR text: TGPY 181500Z 08010KT 9999 FEW022 32/26 Q1012 NOSIG
Conditions at: TGPY (POINT SALINES , GD) observed 1500 UTC 18 September 2020
Temperature: 32.0°C (90°F)
Dewpoint: 26.0°C (79°F) [RH = 71%]
Pressure (altimeter): 29.88 inches Hg (1012.0 mb)
Winds: from the E (80 degrees) at 12 MPH (10 knots; 5.1 m/s)
Visibility: 6 or more miles (10+ km)
Ceiling: at least 12,000 feet AGL
Clouds: few clouds at 2200 feet AGL
Weather: no significant weather observed at this time

Forecast for: TGPY (POINT SALINES , GD)
Text: TGPY 192256Z 2020/2024 11008KT 9999 FEW15CB SCT035
Forecast period: 2000 UTC 20 September 2020 to 0000 UTC 21 September 2020
Forecast type: FROM: standard forecast or significant change
Winds: from the ESE (110 degrees) at 9 MPH (8 knots; 4.1 m/s)
Visibility: 6 or more miles (10+ km)
Ceiling: at least 12,000 feet AGL
Clouds: scattered clouds at 3500 feet AGL
Weather: no significant weather forecast for this period
Text: PROB40
Forecast period: 0600 to 1200 UTC 20 September 2020
Forecast type: TEMPORARY: The following changes expected for less than half the time period
Visibility: 4 miles (6 km)
Ceiling: at least 12,000 feet AGL
Clouds: scattered clouds at 1700 feet AGL
Weather: SHRA  (rain showers)
Text: TEMPO 2006/2012 6000 SHRA SCT017
Forecast period: 1000 to 2200 UTC 20 September 2020
Forecast type: BECOMING: Conditions expected to become as follows by 1200 UTC 20 September 2020
Winds: from the ESE (120 degrees) at 17 MPH (15 knots; 7.7 m/s)
Visibility: 6 or more miles (10+ km)
Ceiling: at least 12,000 feet AGL
Clouds: few clouds at 2000 feet AGL
scattered clouds at 4500 feet AGL
Weather: no significant weather forecast for this period
Text: BECMG 2010/2012 12015KT FEW020 SCT045
Forecast period: 2200 UTC 20 September 2020 to 0000 UTC 21 September 2020
Forecast type: BECOMING: Conditions expected to become as follows by 0000 UTC 21 September 2020
Winds: from the E (100 degrees) at 12 MPH (10 knots; 5.1 m/s)
Visibility: 6 or more miles (10+ km)
Ceiling: at least 12,000 feet AGL
Clouds: few clouds at 1800 feet AGL
Weather: no significant weather forecast for this period